Check out our new PWSWeather beta!
PWSweather.com
Personal Weather Stations
Station Observations
PICKERING
North Yorkshire, PickeringGB

North YorkshirePickeringGB

Lat: 54.2494, Lon: -0.7725

Elevation: 192

Station Type: Oregon Scientific WMR100

High Low Average
Temperature 51.8°F11.0°C 42.1°F5.6°C 48.9°F9.4°C
Dew Point 48.2°F9.0°C 37.4°F3.0°C 44.8°F7.1°C
Winds 17.8 mph 28.6 kmh 0.4 mph 0.6 kmh 5.0 mph ESE8.0 kmh ESE
Wind Gusts 19.5 mph31.4 kmh 2.0 mph3.2 kmh 8.0 mph12.9 kmh
Humidity 89% 77% 84%
Pressure 29.80 in1009.1 mb 29.41 in995.9 mb -
Precipitation 0.17 in4.3 mm - -
Hour Temp Dew Point Humidity Winds Wind Gusts Pressure Precip Precip Rate Daily Precip Total
12:00 AM 50.5°F10.3°C 46.4°F8.0°C 85% 5.5 mph NE8.9 kmh NE 7.8 mph12.6 kmh 29.50 in999.0 mb 0.00 in0.0 mm 0.00 in0.0 mm 0.00 in0.0 mm
12:05 AM 50.7°F10.4°C 46.4°F8.0°C 86% 5.3 mph NE8.5 kmh NE 7.8 mph12.6 kmh 29.50 in999.0 mb 0.00 in0.0 mm 0.00 in0.0 mm 0.00 in0.0 mm
12:10 AM 50.5°F10.3°C 46.4°F8.0°C 86% 4.8 mph NE7.7 kmh NE 5.8 mph9.3 kmh 29.50 in999.0 mb 0.00 in0.0 mm 0.00 in0.0 mm 0.00 in0.0 mm
12:15 AM 50.5°F10.3°C 46.4°F8.0°C 86% 3.9 mph NE6.3 kmh NE 5.8 mph9.3 kmh 29.50 in999.0 mb 0.00 in0.0 mm 0.00 in0.0 mm 0.00 in0.0 mm
12:20 AM 50.7°F10.4°C 46.4°F8.0°C 86% 3.2 mph ENE5.1 kmh ENE 3.6 mph5.8 kmh 29.50 in999.0 mb 0.06 in1.5 mm 0.72 in18.3 mm 0.06 in1.5 mm
12:25 AM 50.7°F10.4°C 46.4°F8.0°C 86% 3.2 mph ENE5.1 kmh ENE 3.8 mph6.1 kmh 29.50 in999.0 mb 0.06 in1.5 mm 0.00 in0.0 mm 0.06 in1.5 mm
12:30 AM 50.7°F10.4°C 46.4°F8.0°C 86% 3.5 mph ENE5.6 kmh ENE 5.8 mph9.3 kmh 29.50 in999.0 mb 0.06 in1.5 mm 0.00 in0.0 mm 0.06 in1.5 mm
12:35 AM 50.7°F10.4°C 46.4°F8.0°C 86% 4.5 mph ENE7.2 kmh ENE 5.8 mph9.3 kmh 29.50 in999.0 mb 0.06 in1.5 mm 0.00 in0.0 mm 0.06 in1.5 mm
12:40 AM 50.7°F10.4°C 46.4°F8.0°C 86% 4.8 mph ENE7.7 kmh ENE 5.8 mph9.3 kmh 29.47 in998.0 mb 0.06 in1.5 mm 0.00 in0.0 mm 0.06 in1.5 mm
12:45 AM 50.7°F10.4°C 46.4°F8.0°C 86% 4.7 mph NE7.6 kmh NE 6.0 mph9.7 kmh 29.47 in998.0 mb 0.06 in1.5 mm 0.00 in0.0 mm 0.06 in1.5 mm
12:50 AM 50.7°F10.4°C 46.4°F8.0°C 86% 4.8 mph NE7.7 kmh NE 6.3 mph10.1 kmh 29.47 in998.0 mb 0.06 in1.5 mm 0.00 in0.0 mm 0.06 in1.5 mm
12:55 AM 50.5°F10.3°C 46.4°F8.0°C 86% 4.8 mph NE7.7 kmh NE 6.3 mph10.1 kmh 29.47 in998.0 mb 0.06 in1.5 mm 0.00 in0.0 mm 0.06 in1.5 mm
01:00 AM 50.7°F10.4°C 46.4°F8.0°C 86% 5.2 mph ENE8.4 kmh ENE 6.3 mph10.1 kmh 29.47 in998.0 mb 0.06 in1.5 mm 0.00 in0.0 mm 0.06 in1.5 mm
01:05 AM 50.5°F10.3°C 46.4°F8.0°C 86% 5.6 mph ENE9.0 kmh ENE 5.6 mph9.0 kmh 29.47 in998.0 mb 0.06 in1.5 mm 0.00 in0.0 mm 0.06 in1.5 mm
01:10 AM 50.5°F10.3°C 46.4°F8.0°C 86% 5.6 mph ENE9.0 kmh ENE 5.6 mph9.0 kmh 29.47 in998.0 mb 0.06 in1.5 mm 0.00 in0.0 mm 0.06 in1.5 mm
01:15 AM 50.5°F10.3°C 46.4°F8.0°C 86% 4.8 mph NE7.7 kmh NE 5.6 mph9.0 kmh 29.47 in998.0 mb 0.06 in1.5 mm 0.00 in0.0 mm 0.06 in1.5 mm
01:20 AM 50.5°F10.3°C 48.2°F9.0°C 87% 4.4 mph NE7.1 kmh NE 5.6 mph9.0 kmh 29.47 in998.0 mb 0.00 in0.0 mm 0.00 in0.0 mm 0.06 in1.5 mm
01:25 AM 50.5°F10.3°C 48.2°F9.0°C 87% 3.8 mph NE6.1 kmh NE 5.6 mph9.0 kmh 29.47 in998.0 mb 0.00 in0.0 mm 0.00 in0.0 mm 0.06 in1.5 mm
01:30 AM 50.5°F10.3°C 48.2°F9.0°C 87% 3.7 mph ENE6.0 kmh ENE 5.6 mph9.0 kmh 29.47 in998.0 mb 0.00 in0.0 mm 0.00 in0.0 mm 0.06 in1.5 mm
01:35 AM 50.5°F10.3°C 48.2°F9.0°C 87% 4.8 mph E7.7 kmh E 7.4 mph11.9 kmh 29.47 in998.0 mb 0.00 in0.0 mm 0.00 in0.0 mm 0.06 in1.5 mm
01:40 AM 50.5°F10.3°C 48.2°F9.0°C 87% 3.9 mph E6.3 kmh E 7.4 mph11.9 kmh 29.47 in998.0 mb 0.00 in0.0 mm 0.00 in0.0 mm 0.06 in1.5 mm
01:45 AM 50.7°F10.4°C 48.2°F9.0°C 87% 2.8 mph ENE4.5 kmh ENE 5.4 mph8.7 kmh 29.47 in998.0 mb 0.00 in0.0 mm 0.00 in0.0 mm 0.06 in1.5 mm
01:50 AM 50.5°F10.3°C 48.2°F9.0°C 87% 3.5 mph ENE5.6 kmh ENE 4.7 mph7.6 kmh 29.47 in998.0 mb 0.00 in0.0 mm 0.00 in0.0 mm 0.06 in1.5 mm
01:55 AM 50.7°F10.4°C 48.2°F9.0°C 87% 4.7 mph ENE7.6 kmh ENE 4.7 mph7.6 kmh 29.45 in997.3 mb 0.00 in0.0 mm 0.00 in0.0 mm 0.06 in1.5 mm
02:00 AM 50.7°F10.4°C 48.2°F9.0°C 87% 4.2 mph ENE6.8 kmh ENE 4.7 mph7.6 kmh 29.45 in997.3 mb 0.00 in0.0 mm 0.00 in0.0 mm 0.06 in1.5 mm
02:05 AM 50.7°F10.4°C 48.2°F9.0°C 87% 3.8 mph ENE6.1 kmh ENE 4.7 mph7.6 kmh 29.45 in997.3 mb 0.00 in0.0 mm 0.00 in0.0 mm 0.06 in1.5 mm
02:10 AM 50.7°F10.4°C 48.2°F9.0°C 87% 3.9 mph E6.3 kmh E 4.3 mph6.9 kmh 29.45 in997.3 mb 0.00 in0.0 mm 0.00 in0.0 mm 0.06 in1.5 mm
02:15 AM 50.7°F10.4°C 48.2°F9.0°C 87% 3.8 mph E6.1 kmh E 4.3 mph6.9 kmh 29.45 in997.3 mb 0.00 in0.0 mm 0.00 in0.0 mm 0.06 in1.5 mm
02:20 AM 50.7°F10.4°C 48.2°F9.0°C 87% 3.5 mph E5.6 kmh E 4.3 mph6.9 kmh 29.45 in997.3 mb 0.00 in0.0 mm 0.00 in0.0 mm 0.06 in1.5 mm
02:25 AM 50.7°F10.4°C 48.2°F9.0°C 87% 3.1 mph ENE5.0 kmh ENE 3.1 mph5.0 kmh 29.45 in997.3 mb 0.06 in1.5 mm 0.72 in18.3 mm 0.11 in2.8 mm
02:30 AM 50.9°F10.5°C 48.2°F9.0°C 88% 3.0 mph ENE4.8 kmh ENE 3.1 mph5.0 kmh 29.45 in997.3 mb 0.06 in1.5 mm 0.00 in0.0 mm 0.11 in2.8 mm
02:35 AM 50.9°F10.5°C 48.2°F9.0°C 88% 2.8 mph NE4.5 kmh NE 3.4 mph5.5 kmh 29.45 in997.3 mb 0.06 in1.5 mm 0.00 in0.0 mm 0.11 in2.8 mm
02:40 AM 50.9°F10.5°C 48.2°F9.0°C 88% 3.6 mph ENE5.8 kmh ENE 6.3 mph10.1 kmh 29.45 in997.3 mb 0.06 in1.5 mm 0.00 in0.0 mm 0.11 in2.8 mm
02:45 AM 50.9°F10.5°C 48.2°F9.0°C 88% 4.3 mph ENE6.9 kmh ENE 6.3 mph10.1 kmh 29.45 in997.3 mb 0.06 in1.5 mm 0.00 in0.0 mm 0.11 in2.8 mm
02:50 AM 50.9°F10.5°C 48.2°F9.0°C 88% 4.0 mph ENE6.4 kmh ENE 5.8 mph9.3 kmh 29.45 in997.3 mb 0.06 in1.5 mm 0.00 in0.0 mm 0.11 in2.8 mm
02:55 AM 50.9°F10.5°C 48.2°F9.0°C 88% 3.9 mph ENE6.3 kmh ENE 4.0 mph6.4 kmh 29.45 in997.3 mb 0.06 in1.5 mm 0.00 in0.0 mm 0.11 in2.8 mm
03:00 AM 50.9°F10.5°C 48.2°F9.0°C 88% 4.0 mph ENE6.4 kmh ENE 4.0 mph6.4 kmh 29.45 in997.3 mb 0.11 in2.8 mm 0.05 in1.3 mm 0.17 in4.3 mm
03:05 AM 50.9°F10.5°C 48.2°F9.0°C 88% 4.3 mph ENE6.9 kmh ENE 4.9 mph7.9 kmh 29.45 in997.3 mb 0.11 in2.8 mm 0.00 in0.0 mm 0.17 in4.3 mm
03:10 AM 50.9°F10.5°C 48.2°F9.0°C 88% 4.9 mph ENE7.9 kmh ENE 4.9 mph7.9 kmh 29.45 in997.3 mb 0.11 in2.8 mm 0.00 in0.0 mm 0.17 in4.3 mm
03:15 AM 50.9°F10.5°C 48.2°F9.0°C 88% 5.0 mph ENE8.0 kmh ENE 5.6 mph9.0 kmh 29.45 in997.3 mb 0.11 in2.8 mm 0.00 in0.0 mm 0.17 in4.3 mm
03:20 AM 50.9°F10.5°C 48.2°F9.0°C 88% 4.4 mph ENE7.1 kmh ENE 5.6 mph9.0 kmh 29.45 in997.3 mb 0.11 in2.8 mm 0.00 in0.0 mm 0.17 in4.3 mm
03:25 AM 50.9°F10.5°C 48.2°F9.0°C 88% 3.9 mph NE6.3 kmh NE 5.6 mph9.0 kmh 29.45 in997.3 mb 0.06 in1.5 mm 0.00 in0.0 mm 0.17 in4.3 mm
03:30 AM 50.9°F10.5°C 48.2°F9.0°C 88% 3.4 mph NE5.5 kmh NE 3.6 mph5.8 kmh 29.45 in997.3 mb 0.06 in1.5 mm 0.00 in0.0 mm 0.17 in4.3 mm
03:35 AM 50.7°F10.4°C 48.2°F9.0°C 88% 3.1 mph NE5.0 kmh NE 3.6 mph5.8 kmh 29.45 in997.3 mb 0.06 in1.5 mm 0.00 in0.0 mm 0.17 in4.3 mm
03:40 AM 50.7°F10.4°C 48.2°F9.0°C 88% 3.6 mph NE5.8 kmh NE 4.3 mph6.9 kmh 29.45 in997.3 mb 0.06 in1.5 mm 0.00 in0.0 mm 0.17 in4.3 mm
03:45 AM 50.7°F10.4°C 48.2°F9.0°C 88% 3.8 mph NE6.1 kmh NE 4.9 mph7.9 kmh 29.45 in997.3 mb 0.06 in1.5 mm 0.00 in0.0 mm 0.17 in4.3 mm
03:50 AM 50.7°F10.4°C 48.2°F9.0°C 88% 3.0 mph NE4.8 kmh NE 4.9 mph7.9 kmh 29.45 in997.3 mb 0.06 in1.5 mm 0.00 in0.0 mm 0.17 in4.3 mm
03:55 AM 50.7°F10.4°C 48.2°F9.0°C 88% 2.7 mph NE4.3 kmh NE 4.0 mph6.4 kmh 29.45 in997.3 mb 0.06 in1.5 mm 0.00 in0.0 mm 0.17 in4.3 mm
04:00 AM 50.9°F10.5°C 48.2°F9.0°C 88% 3.4 mph NE5.5 kmh NE 4.9 mph7.9 kmh 29.45 in997.3 mb 0.00 in0.0 mm 0.00 in0.0 mm 0.17 in4.3 mm
04:05 AM 50.9°F10.5°C 48.2°F9.0°C 88% 4.3 mph NE6.9 kmh NE 5.6 mph9.0 kmh 29.45 in997.3 mb 0.00 in0.0 mm 0.00 in0.0 mm 0.17 in4.3 mm
04:10 AM 50.9°F10.5°C 48.2°F9.0°C 88% 4.8 mph ENE7.7 kmh ENE 5.8 mph9.3 kmh 29.45 in997.3 mb 0.00 in0.0 mm 0.00 in0.0 mm 0.17 in4.3 mm
04:15 AM 50.9°F10.5°C 48.2°F9.0°C 88% 4.3 mph ENE6.9 kmh ENE 5.8 mph9.3 kmh 29.45 in997.3 mb 0.00 in0.0 mm 0.00 in0.0 mm 0.17 in4.3 mm
04:20 AM 50.9°F10.5°C 48.2°F9.0°C 88% 2.7 mph ENE4.3 kmh ENE 2.7 mph4.3 kmh 29.45 in997.3 mb 0.00 in0.0 mm 0.00 in0.0 mm 0.17 in4.3 mm
04:25 AM 50.9°F10.5°C 48.2°F9.0°C 89% 2.7 mph ENE4.3 kmh ENE 2.7 mph4.3 kmh 29.41 in995.9 mb 0.00 in0.0 mm 0.00 in0.0 mm 0.17 in4.3 mm
04:30 AM 50.9°F10.5°C 48.2°F9.0°C 89% 3.8 mph ENE6.1 kmh ENE 4.9 mph7.9 kmh 29.41 in995.9 mb 0.00 in0.0 mm 0.00 in0.0 mm 0.17 in4.3 mm
04:35 AM 51.1°F10.6°C 48.2°F9.0°C 88% 4.9 mph NE7.9 kmh NE 4.9 mph7.9 kmh 29.41 in995.9 mb 0.00 in0.0 mm 0.00 in0.0 mm 0.17 in4.3 mm
04:40 AM 51.1°F10.6°C 48.2°F9.0°C 88% 6.1 mph NE9.8 kmh NE 10.1 mph16.3 kmh 29.41 in995.9 mb 0.00 in0.0 mm 0.00 in0.0 mm 0.17 in4.3 mm
04:45 AM 51.1°F10.6°C 48.2°F9.0°C 88% 6.4 mph NE10.3 kmh NE 10.1 mph16.3 kmh 29.41 in995.9 mb 0.00 in0.0 mm 0.00 in0.0 mm 0.17 in4.3 mm
04:50 AM 51.1°F10.6°C 48.2°F9.0°C 88% 4.7 mph NE7.6 kmh NE 10.1 mph16.3 kmh 29.41 in995.9 mb 0.00 in0.0 mm 0.00 in0.0 mm 0.17 in4.3 mm
04:55 AM 51.1°F10.6°C 48.2°F9.0°C 88% 4.8 mph NE7.7 kmh NE 8.1 mph13.0 kmh 29.41 in995.9 mb 0.00 in0.0 mm 0.00 in0.0 mm 0.17 in4.3 mm
05:00 AM 51.1°F10.6°C 48.2°F9.0°C 88% 5.5 mph ENE8.9 kmh ENE 8.1 mph13.0 kmh 29.41 in995.9 mb 0.00 in0.0 mm 0.00 in0.0 mm 0.17 in4.3 mm
05:05 AM 51.1°F10.6°C 48.2°F9.0°C 88% 5.6 mph ENE9.0 kmh ENE 5.6 mph9.0 kmh 29.41 in995.9 mb 0.00 in0.0 mm 0.00 in0.0 mm 0.17 in4.3 mm
05:10 AM 51.1°F10.6°C 48.2°F9.0°C 88% 5.6 mph ENE9.0 kmh ENE 5.6 mph9.0 kmh 29.41 in995.9 mb 0.00 in0.0 mm 0.00 in0.0 mm 0.17 in4.3 mm
05:15 AM 51.1°F10.6°C 48.2°F9.0°C 88% 5.6 mph ENE9.0 kmh ENE 5.6 mph9.0 kmh 29.41 in995.9 mb 0.00 in0.0 mm 0.00 in0.0 mm 0.17 in4.3 mm
05:20 AM 51.1°F10.6°C 48.2°F9.0°C 88% 5.6 mph ENE9.0 kmh ENE 5.6 mph9.0 kmh 29.41 in995.9 mb 0.00 in0.0 mm 0.00 in0.0 mm 0.17 in4.3 mm
05:25 AM 51.1°F10.6°C 48.2°F9.0°C 88% 5.6 mph ENE9.0 kmh ENE 5.6 mph9.0 kmh 29.41 in995.9 mb 0.00 in0.0 mm 0.00 in0.0 mm 0.17 in4.3 mm
05:30 AM 50.9°F10.5°C 48.2°F9.0°C 88% 5.6 mph ENE9.0 kmh ENE 5.6 mph9.0 kmh 29.41 in995.9 mb 0.00 in0.0 mm 0.00 in0.0 mm 0.17 in4.3 mm
05:35 AM 50.9°F10.5°C 48.2°F9.0°C 88% 5.6 mph ENE9.0 kmh ENE 5.6 mph9.0 kmh 29.41 in995.9 mb 0.00 in0.0 mm 0.00 in0.0 mm 0.17 in4.3 mm
05:40 AM 50.9°F10.5°C 48.2°F9.0°C 88% 5.6 mph ENE9.0 kmh ENE 5.6 mph9.0 kmh 29.41 in995.9 mb 0.00 in0.0 mm 0.00 in0.0 mm 0.17 in4.3 mm
05:45 AM 50.9°F10.5°C 48.2°F9.0°C 88% 5.6 mph ENE9.0 kmh ENE 5.6 mph9.0 kmh 29.41 in995.9 mb 0.00 in0.0 mm 0.00 in0.0 mm 0.17 in4.3 mm
05:50 AM 50.9°F10.5°C 48.2°F9.0°C 88% 5.6 mph ENE9.0 kmh ENE 5.6 mph9.0 kmh 29.41 in995.9 mb 0.00 in0.0 mm 0.00 in0.0 mm 0.17 in4.3 mm
05:55 AM 50.9°F10.5°C 48.2°F9.0°C 88% 6.0 mph NNE9.7 kmh NNE 6.0 mph9.7 kmh 29.41 in995.9 mb 0.00 in0.0 mm 0.00 in0.0 mm 0.17 in4.3 mm
06:00 AM 50.9°F10.5°C 48.2°F9.0°C 88% 6.0 mph NNE9.7 kmh NNE 6.0 mph9.7 kmh 29.41 in995.9 mb 0.00 in0.0 mm 0.00 in0.0 mm 0.17 in4.3 mm
06:05 AM 50.9°F10.5°C 48.2°F9.0°C 88% 6.7 mph NE10.8 kmh NE 7.6 mph12.2 kmh 29.41 in995.9 mb 0.00 in0.0 mm 0.00 in0.0 mm 0.17 in4.3 mm
06:10 AM 50.7°F10.4°C 48.2°F9.0°C 88% 7.2 mph NE11.6 kmh NE 7.6 mph12.2 kmh 29.41 in995.9 mb 0.00 in0.0 mm 0.00 in0.0 mm 0.17 in4.3 mm
06:15 AM 50.7°F10.4°C 48.2°F9.0°C 88% 7.6 mph ENE12.2 kmh ENE 7.6 mph12.2 kmh 29.41 in995.9 mb 0.00 in0.0 mm 0.00 in0.0 mm 0.17 in4.3 mm
06:20 AM 50.7°F10.4°C 48.2°F9.0°C 88% 6.8 mph ENE10.9 kmh ENE 8.5 mph13.7 kmh 29.41 in995.9 mb 0.00 in0.0 mm 0.00 in0.0 mm 0.17 in4.3 mm
06:25 AM 50.5°F10.3°C 48.2°F9.0°C 88% 5.6 mph ENE9.0 kmh ENE 8.5 mph13.7 kmh 29.41 in995.9 mb 0.00 in0.0 mm 0.00 in0.0 mm 0.17 in4.3 mm
06:30 AM 50.5°F10.3°C 48.2°F9.0°C 88% 5.7 mph E9.2 kmh E 8.1 mph13.0 kmh 29.41 in995.9 mb 0.00 in0.0 mm 0.00 in0.0 mm 0.17 in4.3 mm
06:35 AM 50.5°F10.3°C 48.2°F9.0°C 87% 6.0 mph E9.7 kmh E 8.1 mph13.0 kmh 29.41 in995.9 mb 0.00 in0.0 mm 0.00 in0.0 mm 0.17 in4.3 mm
06:40 AM 50.5°F10.3°C 48.2°F9.0°C 88% 6.3 mph E10.1 kmh E 9.6 mph15.4 kmh 29.45 in997.3 mb 0.00 in0.0 mm 0.00 in0.0 mm 0.17 in4.3 mm
06:45 AM 50.4°F10.2°C 48.2°F9.0°C 87% 6.8 mph E10.9 kmh E 9.6 mph15.4 kmh 29.45 in997.3 mb 0.00 in0.0 mm 0.00 in0.0 mm 0.17 in4.3 mm
06:50 AM 50.4°F10.2°C 48.2°F9.0°C 87% 6.8 mph E10.9 kmh E 12.3 mph19.8 kmh 29.45 in997.3 mb 0.00 in0.0 mm 0.00 in0.0 mm 0.17 in4.3 mm
06:55 AM 50.4°F10.2°C 48.2°F9.0°C 87% 6.8 mph E10.9 kmh E 12.3 mph19.8 kmh 29.45 in997.3 mb 0.00 in0.0 mm 0.00 in0.0 mm 0.17 in4.3 mm
07:00 AM 50.4°F10.2°C 48.2°F9.0°C 87% 6.7 mph ENE10.8 kmh ENE 10.5 mph16.9 kmh 29.45 in997.3 mb 0.00 in0.0 mm 0.00 in0.0 mm 0.17 in4.3 mm
07:05 AM 50.4°F10.2°C 48.2°F9.0°C 88% 5.5 mph ENE8.9 kmh ENE 8.1 mph13.0 kmh 29.45 in997.3 mb 0.00 in0.0 mm 0.00 in0.0 mm 0.17 in4.3 mm
07:10 AM 50.4°F10.2°C 48.2°F9.0°C 88% 5.2 mph ENE8.4 kmh ENE 7.4 mph11.9 kmh 29.45 in997.3 mb 0.00 in0.0 mm 0.00 in0.0 mm 0.17 in4.3 mm
07:15 AM 50.4°F10.2°C 48.2°F9.0°C 88% 6.6 mph ENE10.6 kmh ENE 13.4 mph21.6 kmh 29.45 in997.3 mb 0.00 in0.0 mm 0.00 in0.0 mm 0.17 in4.3 mm
07:20 AM 50.5°F10.3°C 48.2°F9.0°C 88% 7.7 mph NE12.4 kmh NE 13.4 mph21.6 kmh 29.45 in997.3 mb 0.00 in0.0 mm 0.00 in0.0 mm 0.17 in4.3 mm
07:25 AM 50.4°F10.2°C 48.2°F9.0°C 88% 6.4 mph NE10.3 kmh NE 8.1 mph13.0 kmh 29.45 in997.3 mb 0.00 in0.0 mm 0.00 in0.0 mm 0.17 in4.3 mm
07:30 AM 50.4°F10.2°C 48.2°F9.0°C 88% 6.2 mph NE10.0 kmh NE 7.8 mph12.6 kmh 29.45 in997.3 mb 0.00 in0.0 mm 0.00 in0.0 mm 0.17 in4.3 mm
07:35 AM 50.4°F10.2°C 48.2°F9.0°C 88% 6.6 mph NE10.6 kmh NE 7.8 mph12.6 kmh 29.45 in997.3 mb 0.00 in0.0 mm 0.00 in0.0 mm 0.17 in4.3 mm
07:40 AM 50.4°F10.2°C 48.2°F9.0°C 88% 8.4 mph NE13.5 kmh NE 13.0 mph20.9 kmh 29.45 in997.3 mb 0.00 in0.0 mm 0.00 in0.0 mm 0.17 in4.3 mm
07:45 AM 50.4°F10.2°C 48.2°F9.0°C 87% 8.4 mph NE13.5 kmh NE 13.0 mph20.9 kmh 29.45 in997.3 mb 0.00 in0.0 mm 0.00 in0.0 mm 0.17 in4.3 mm
07:50 AM 50.4°F10.2°C 48.2°F9.0°C 87% 8.0 mph NE12.9 kmh NE 10.5 mph16.9 kmh 29.45 in997.3 mb 0.00 in0.0 mm 0.00 in0.0 mm 0.17 in4.3 mm
07:55 AM 50.4°F10.2°C 48.2°F9.0°C 87% 7.3 mph NE11.7 kmh NE 12.8 mph20.6 kmh 29.47 in998.0 mb 0.00 in0.0 mm 0.00 in0.0 mm 0.17 in4.3 mm
08:00 AM 50.4°F10.2°C 48.2°F9.0°C 87% 7.2 mph NE11.6 kmh NE 12.8 mph20.6 kmh 29.47 in998.0 mb 0.00 in0.0 mm 0.00 in0.0 mm 0.17 in4.3 mm
08:05 AM 50.4°F10.2°C 48.2°F9.0°C 87% 7.9 mph NE12.7 kmh NE 12.5 mph20.1 kmh 29.47 in998.0 mb 0.00 in0.0 mm 0.00 in0.0 mm 0.17 in4.3 mm
08:10 AM 50.4°F10.2°C 48.2°F9.0°C 87% 8.8 mph NE14.2 kmh NE 12.5 mph20.1 kmh 29.47 in998.0 mb 0.00 in0.0 mm 0.00 in0.0 mm 0.17 in4.3 mm
08:15 AM 50.4°F10.2°C 48.2°F9.0°C 87% 9.3 mph NE15.0 kmh NE 11.0 mph17.7 kmh 29.47 in998.0 mb 0.00 in0.0 mm 0.00 in0.0 mm 0.17 in4.3 mm
08:20 AM 50.4°F10.2°C 48.2°F9.0°C 87% 7.4 mph NE11.9 kmh NE 10.7 mph17.2 kmh 29.47 in998.0 mb 0.00 in0.0 mm 0.00 in0.0 mm 0.17 in4.3 mm
08:25 AM 50.5°F10.3°C 48.2°F9.0°C 87% 7.0 mph ENE11.3 kmh ENE 15.2 mph24.5 kmh 29.47 in998.0 mb 0.00 in0.0 mm 0.00 in0.0 mm 0.17 in4.3 mm
08:30 AM 50.4°F10.2°C 48.2°F9.0°C 87% 8.9 mph NE14.3 kmh NE 15.2 mph24.5 kmh 29.47 in998.0 mb 0.00 in0.0 mm 0.00 in0.0 mm 0.17 in4.3 mm
08:35 AM 50.5°F10.3°C 48.2°F9.0°C 87% 10.4 mph NE16.7 kmh NE 12.8 mph20.6 kmh 29.47 in998.0 mb 0.00 in0.0 mm 0.00 in0.0 mm 0.17 in4.3 mm
08:40 AM 50.5°F10.3°C 48.2°F9.0°C 87% 10.8 mph NE17.4 kmh NE 12.8 mph20.6 kmh 29.47 in998.0 mb 0.00 in0.0 mm 0.00 in0.0 mm 0.17 in4.3 mm
08:45 AM 50.5°F10.3°C 48.2°F9.0°C 87% 9.7 mph NE15.6 kmh NE 13.4 mph21.6 kmh 29.47 in998.0 mb 0.00 in0.0 mm 0.00 in0.0 mm 0.17 in4.3 mm
08:50 AM 50.5°F10.3°C 48.2°F9.0°C 87% 8.0 mph NE12.9 kmh NE 13.4 mph21.6 kmh 29.47 in998.0 mb 0.00 in0.0 mm 0.00 in0.0 mm 0.17 in4.3 mm
08:55 AM 50.7°F10.4°C 48.2°F9.0°C 87% 7.9 mph NE12.7 kmh NE 9.8 mph15.8 kmh 29.47 in998.0 mb 0.00 in0.0 mm 0.00 in0.0 mm 0.17 in4.3 mm
09:00 AM 50.9°F10.5°C 48.2°F9.0°C 87% 8.1 mph NE13.0 kmh NE 9.8 mph15.8 kmh 29.47 in998.0 mb 0.00 in0.0 mm 0.00 in0.0 mm 0.17 in4.3 mm
09:05 AM 51.1°F10.6°C 48.2°F9.0°C 87% 10.1 mph NE16.3 kmh NE 19.5 mph31.4 kmh 29.47 in998.0 mb 0.00 in0.0 mm 0.00 in0.0 mm 0.17 in4.3 mm
09:10 AM 51.1°F10.6°C 48.2°F9.0°C 87% 17.3 mph NNE27.8 kmh NNE 19.5 mph31.4 kmh 29.47 in998.0 mb 0.00 in0.0 mm 0.00 in0.0 mm 0.17 in4.3 mm
09:15 AM 51.1°F10.6°C 48.2°F9.0°C 87% 17.8 mph NNE28.6 kmh NNE 19.5 mph31.4 kmh 29.47 in998.0 mb 0.00 in0.0 mm 0.00 in0.0 mm 0.17 in4.3 mm
09:20 AM 51.4°F10.8°C 48.2°F9.0°C 87% 11.7 mph NE18.8 kmh NE 19.5 mph31.4 kmh 29.47 in998.0 mb 0.00 in0.0 mm 0.00 in0.0 mm 0.17 in4.3 mm
09:25 AM 51.4°F10.8°C 48.2°F9.0°C 87% 10.0 mph NE16.1 kmh NE 17.2 mph27.7 kmh 29.50 in999.0 mb 0.00 in0.0 mm 0.00 in0.0 mm 0.17 in4.3 mm
09:30 AM 51.4°F10.8°C 48.2°F9.0°C 87% 8.5 mph NE13.7 kmh NE 12.5 mph20.1 kmh 29.50 in999.0 mb 0.00 in0.0 mm 0.00 in0.0 mm 0.17 in4.3 mm
09:35 AM 51.4°F10.8°C 48.2°F9.0°C 87% 7.8 mph NE12.6 kmh NE 11.9 mph19.2 kmh 29.50 in999.0 mb 0.00 in0.0 mm 0.00 in0.0 mm 0.17 in4.3 mm
09:40 AM 51.3°F10.7°C 48.2°F9.0°C 86% 9.9 mph ENE15.9 kmh ENE 14.8 mph23.8 kmh 29.50 in999.0 mb 0.00 in0.0 mm 0.00 in0.0 mm 0.17 in4.3 mm
09:45 AM 51.3°F10.7°C 48.2°F9.0°C 86% 11.1 mph ENE17.9 kmh ENE 19.0 mph30.6 kmh 29.50 in999.0 mb 0.00 in0.0 mm 0.00 in0.0 mm 0.17 in4.3 mm
09:50 AM 51.4°F10.8°C 48.2°F9.0°C 86% 10.0 mph NE16.1 kmh NE 19.0 mph30.6 kmh 29.50 in999.0 mb 0.00 in0.0 mm 0.00 in0.0 mm 0.17 in4.3 mm
09:55 AM 51.4°F10.8°C 48.2°F9.0°C 86% 8.6 mph ENE13.8 kmh ENE 16.1 mph25.9 kmh 29.50 in999.0 mb 0.00 in0.0 mm 0.00 in0.0 mm 0.17 in4.3 mm
10:00 AM 51.6°F10.9°C 48.2°F9.0°C 86% 8.8 mph ENE14.2 kmh ENE 9.6 mph15.4 kmh 29.50 in999.0 mb 0.00 in0.0 mm 0.00 in0.0 mm 0.17 in4.3 mm
10:05 AM 51.6°F10.9°C 48.2°F9.0°C 86% 8.7 mph NE14.0 kmh NE 10.5 mph16.9 kmh 29.50 in999.0 mb 0.00 in0.0 mm 0.00 in0.0 mm 0.17 in4.3 mm
10:10 AM 51.6°F10.9°C 48.2°F9.0°C 85% 9.3 mph NE15.0 kmh NE 11.0 mph17.7 kmh 29.50 in999.0 mb 0.00 in0.0 mm 0.00 in0.0 mm 0.17 in4.3 mm
10:15 AM 51.4°F10.8°C 48.2°F9.0°C 85% 10.4 mph ENE16.7 kmh ENE 13.0 mph20.9 kmh 29.50 in999.0 mb 0.00 in0.0 mm 0.00 in0.0 mm 0.17 in4.3 mm
10:20 AM 51.4°F10.8°C 48.2°F9.0°C 85% 9.4 mph ENE15.1 kmh ENE 13.0 mph20.9 kmh 29.50 in999.0 mb 0.00 in0.0 mm 0.00 in0.0 mm 0.17 in4.3 mm
10:25 AM 51.4°F10.8°C 48.2°F9.0°C 85% 7.5 mph NE12.1 kmh NE 10.5 mph16.9 kmh 29.50 in999.0 mb 0.00 in0.0 mm 0.00 in0.0 mm 0.17 in4.3 mm
10:30 AM 51.3°F10.7°C 48.2°F9.0°C 85% 6.1 mph NE9.8 kmh NE 7.6 mph12.2 kmh 29.50 in999.0 mb 0.00 in0.0 mm 0.00 in0.0 mm 0.17 in4.3 mm
10:35 AM 51.4°F10.8°C 48.2°F9.0°C 85% 8.1 mph NE13.0 kmh NE 13.2 mph21.2 kmh 29.50 in999.0 mb 0.00 in0.0 mm 0.00 in0.0 mm 0.17 in4.3 mm
10:40 AM 51.4°F10.8°C 48.2°F9.0°C 85% 9.3 mph NE15.0 kmh NE 13.2 mph21.2 kmh 29.50 in999.0 mb 0.00 in0.0 mm 0.00 in0.0 mm 0.17 in4.3 mm
10:45 AM 51.4°F10.8°C 48.2°F9.0°C 85% 8.9 mph NE14.3 kmh NE 15.4 mph24.8 kmh 29.50 in999.0 mb 0.00 in0.0 mm 0.00 in0.0 mm 0.17 in4.3 mm
10:50 AM 51.4°F10.8°C 46.4°F8.0°C 84% 9.0 mph NE14.5 kmh NE 15.4 mph24.8 kmh 29.50 in999.0 mb 0.00 in0.0 mm 0.00 in0.0 mm 0.17 in4.3 mm
10:55 AM 51.4°F10.8°C 46.4°F8.0°C 84% 9.4 mph NE15.1 kmh NE 15.2 mph24.5 kmh 29.50 in999.0 mb 0.00 in0.0 mm 0.00 in0.0 mm 0.17 in4.3 mm
11:00 AM 51.6°F10.9°C 48.2°F9.0°C 84% 9.2 mph NE14.8 kmh NE 13.0 mph20.9 kmh 29.50 in999.0 mb 0.00 in0.0 mm 0.00 in0.0 mm 0.17 in4.3 mm
11:05 AM 51.6°F10.9°C 48.2°F9.0°C 84% 9.7 mph NE15.6 kmh NE 12.8 mph20.6 kmh 29.50 in999.0 mb 0.00 in0.0 mm 0.00 in0.0 mm 0.17 in4.3 mm
11:10 AM 51.8°F11.0°C 48.2°F9.0°C 84% 9.5 mph NE15.3 kmh NE 15.4 mph24.8 kmh 29.53 in1000.0 mb 0.00 in0.0 mm 0.00 in0.0 mm 0.17 in4.3 mm
11:15 AM 51.8°F11.0°C 48.2°F9.0°C 84% 8.7 mph NE14.0 kmh NE 15.4 mph24.8 kmh 29.53 in1000.0 mb 0.00 in0.0 mm 0.00 in0.0 mm 0.17 in4.3 mm
11:20 AM 51.8°F11.0°C 48.2°F9.0°C 84% 8.2 mph NE13.2 kmh NE 11.9 mph19.2 kmh 29.53 in1000.0 mb 0.00 in0.0 mm 0.00 in0.0 mm 0.17 in4.3 mm
11:25 AM 51.8°F11.0°C 48.2°F9.0°C 84% 7.5 mph NE12.1 kmh NE 11.0 mph17.7 kmh 29.53 in1000.0 mb 0.00 in0.0 mm 0.00 in0.0 mm 0.17 in4.3 mm
11:30 AM 51.6°F10.9°C 48.2°F9.0°C 84% 7.7 mph NE12.4 kmh NE 13.6 mph21.9 kmh 29.53 in1000.0 mb 0.00 in0.0 mm 0.00 in0.0 mm 0.17 in4.3 mm
11:35 AM 51.6°F10.9°C 48.2°F9.0°C 84% 8.9 mph NE14.3 kmh NE 13.6 mph21.9 kmh 29.53 in1000.0 mb 0.00 in0.0 mm 0.00 in0.0 mm 0.17 in4.3 mm
11:40 AM 51.4°F10.8°C 46.4°F8.0°C 84% 9.3 mph NE15.0 kmh NE 14.8 mph23.8 kmh 29.53 in1000.0 mb 0.00 in0.0 mm 0.00 in0.0 mm 0.17 in4.3 mm
11:45 AM 51.4°F10.8°C 46.4°F8.0°C 84% 8.0 mph NE12.9 kmh NE 14.8 mph23.8 kmh 29.53 in1000.0 mb 0.00 in0.0 mm 0.00 in0.0 mm 0.17 in4.3 mm
11:50 AM 51.3°F10.7°C 46.4°F8.0°C 84% 7.4 mph NE11.9 kmh NE 10.1 mph16.3 kmh 29.53 in1000.0 mb 0.00 in0.0 mm 0.00 in0.0 mm 0.17 in4.3 mm
11:55 AM 51.4°F10.8°C 46.4°F8.0°C 84% 6.9 mph NNE11.1 kmh NNE 10.1 mph16.3 kmh 29.53 in1000.0 mb 0.00 in0.0 mm 0.00 in0.0 mm 0.17 in4.3 mm
12:00 PM 51.4°F10.8°C 46.4°F8.0°C 84% 6.8 mph NE10.9 kmh NE 9.8 mph15.8 kmh 29.53 in1000.0 mb 0.00 in0.0 mm 0.00 in0.0 mm 0.17 in4.3 mm
12:05 PM 51.6°F10.9°C 48.2°F9.0°C 84% 7.3 mph NE11.7 kmh NE 10.3 mph16.6 kmh 29.53 in1000.0 mb 0.00 in0.0 mm 0.00 in0.0 mm 0.17 in4.3 mm
12:10 PM 51.8°F11.0°C 48.2°F9.0°C 84% 6.8 mph NE10.9 kmh NE 10.3 mph16.6 kmh 29.53 in1000.0 mb 0.00 in0.0 mm 0.00 in0.0 mm 0.17 in4.3 mm
12:15 PM 51.6°F10.9°C 48.2°F9.0°C 84% 7.4 mph NE11.9 kmh NE 11.0 mph17.7 kmh 29.53 in1000.0 mb 0.00 in0.0 mm 0.00 in0.0 mm 0.17 in4.3 mm
12:20 PM 51.8°F11.0°C 48.2°F9.0°C 84% 8.3 mph NE13.4 kmh NE 13.2 mph21.2 kmh 29.53 in1000.0 mb 0.00 in0.0 mm 0.00 in0.0 mm 0.17 in4.3 mm
12:25 PM 51.8°F11.0°C 48.2°F9.0°C 84% 6.8 mph NE10.9 kmh NE 13.2 mph21.2 kmh 29.53 in1000.0 mb 0.00 in0.0 mm 0.00 in0.0 mm 0.17 in4.3 mm
12:30 PM 51.8°F11.0°C 48.2°F9.0°C 84% 6.6 mph NE10.6 kmh NE 12.1 mph19.5 kmh 29.53 in1000.0 mb 0.00 in0.0 mm 0.00 in0.0 mm 0.17 in4.3 mm
12:35 PM 51.8°F11.0°C 46.4°F8.0°C 83% 6.5 mph NE10.5 kmh NE 12.1 mph19.5 kmh 29.53 in1000.0 mb 0.00 in0.0 mm 0.00 in0.0 mm 0.17 in4.3 mm
12:40 PM 51.6°F10.9°C 46.4°F8.0°C 83% 6.4 mph NNE10.3 kmh NNE 10.5 mph16.9 kmh 29.53 in1000.0 mb 0.00 in0.0 mm 0.00 in0.0 mm 0.17 in4.3 mm
12:45 PM 51.6°F10.9°C 46.4°F8.0°C 83% 8.0 mph NE12.9 kmh NE 13.0 mph20.9 kmh 29.53 in1000.0 mb 0.00 in0.0 mm 0.00 in0.0 mm 0.17 in4.3 mm
12:50 PM 51.6°F10.9°C 46.4°F8.0°C 83% 8.8 mph NE14.2 kmh NE 13.0 mph20.9 kmh 29.53 in1000.0 mb 0.00 in0.0 mm 0.00 in0.0 mm 0.17 in4.3 mm
12:55 PM 51.4°F10.8°C 46.4°F8.0°C 83% 8.2 mph NNE13.2 kmh NNE 10.1 mph16.3 kmh 29.56 in1001.0 mb 0.00 in0.0 mm 0.00 in0.0 mm 0.17 in4.3 mm
01:00 PM 51.4°F10.8°C 46.4°F8.0°C 83% 7.8 mph NE12.6 kmh NE 12.5 mph20.1 kmh 29.56 in1001.0 mb 0.00 in0.0 mm 0.00 in0.0 mm 0.17 in4.3 mm
01:05 PM 51.6°F10.9°C 46.4°F8.0°C 83% 7.3 mph NE11.7 kmh NE 12.5 mph20.1 kmh 29.56 in1001.0 mb 0.00 in0.0 mm 0.00 in0.0 mm 0.17 in4.3 mm
01:10 PM 51.4°F10.8°C 46.4°F8.0°C 83% 7.4 mph NE11.9 kmh NE 11.0 mph17.7 kmh 29.56 in1001.0 mb 0.00 in0.0 mm 0.00 in0.0 mm 0.17 in4.3 mm
01:15 PM 51.4°F10.8°C 46.4°F8.0°C 83% 7.7 mph NE12.4 kmh NE 11.0 mph17.7 kmh 29.56 in1001.0 mb 0.00 in0.0 mm 0.00 in0.0 mm 0.17 in4.3 mm
01:20 PM 51.1°F10.6°C 46.4°F8.0°C 83% 8.1 mph NNE13.0 kmh NNE 12.5 mph20.1 kmh 29.56 in1001.0 mb 0.00 in0.0 mm 0.00 in0.0 mm 0.17 in4.3 mm
01:25 PM 51.1°F10.6°C 46.4°F8.0°C 82% 8.0 mph NNE12.9 kmh NNE 12.5 mph20.1 kmh 29.56 in1001.0 mb 0.00 in0.0 mm 0.00 in0.0 mm 0.17 in4.3 mm
01:30 PM 51.4°F10.8°C 46.4°F8.0°C 83% 7.2 mph NNE11.6 kmh NNE 10.1 mph16.3 kmh 29.56 in1001.0 mb 0.00 in0.0 mm 0.00 in0.0 mm 0.17 in4.3 mm
01:35 PM 51.4°F10.8°C 46.4°F8.0°C 83% 8.0 mph NE12.9 kmh NE 13.2 mph21.2 kmh 29.56 in1001.0 mb 0.00 in0.0 mm 0.00 in0.0 mm 0.17 in4.3 mm
01:40 PM 51.1°F10.6°C 46.4°F8.0°C 82% 7.0 mph NE11.3 kmh NE 13.2 mph21.2 kmh 29.56 in1001.0 mb 0.00 in0.0 mm 0.00 in0.0 mm 0.17 in4.3 mm
01:45 PM 51.1°F10.6°C 46.4°F8.0°C 82% 6.1 mph NE9.8 kmh NE 10.3 mph16.6 kmh 29.56 in1001.0 mb 0.00 in0.0 mm 0.00 in0.0 mm 0.17 in4.3 mm
01:50 PM 51.1°F10.6°C 46.4°F8.0°C 82% 6.4 mph NNE10.3 kmh NNE 10.3 mph16.6 kmh 29.56 in1001.0 mb 0.00 in0.0 mm 0.00 in0.0 mm 0.17 in4.3 mm
01:55 PM 51.1°F10.6°C 46.4°F8.0°C 82% 5.9 mph NNE9.5 kmh NNE 10.3 mph16.6 kmh 29.56 in1001.0 mb 0.00 in0.0 mm 0.00 in0.0 mm 0.17 in4.3 mm
02:00 PM 51.1°F10.6°C 46.4°F8.0°C 82% 6.0 mph NNE9.7 kmh NNE 7.8 mph12.6 kmh 29.56 in1001.0 mb 0.00 in0.0 mm 0.00 in0.0 mm 0.17 in4.3 mm
02:05 PM 51.3°F10.7°C 46.4°F8.0°C 82% 5.9 mph NNE9.5 kmh NNE 7.8 mph12.6 kmh 29.56 in1001.0 mb 0.00 in0.0 mm 0.00 in0.0 mm 0.17 in4.3 mm
02:10 PM 51.3°F10.7°C 46.4°F8.0°C 82% 5.6 mph NNE9.0 kmh NNE 9.8 mph15.8 kmh 29.56 in1001.0 mb 0.00 in0.0 mm 0.00 in0.0 mm 0.17 in4.3 mm
02:15 PM 51.3°F10.7°C 46.4°F8.0°C 82% 6.4 mph NNE10.3 kmh NNE 9.8 mph15.8 kmh 29.56 in1001.0 mb 0.00 in0.0 mm 0.00 in0.0 mm 0.17 in4.3 mm
02:20 PM 51.4°F10.8°C 46.4°F8.0°C 82% 5.0 mph NE8.0 kmh NE 7.6 mph12.2 kmh 29.56 in1001.0 mb 0.00 in0.0 mm 0.00 in0.0 mm 0.17 in4.3 mm
02:25 PM 51.4°F10.8°C 46.4°F8.0°C 82% 4.3 mph NE6.9 kmh NE 8.5 mph13.7 kmh 29.59 in1002.0 mb 0.00 in0.0 mm 0.00 in0.0 mm 0.17 in4.3 mm
02:30 PM 51.3°F10.7°C 46.4°F8.0°C 82% 4.9 mph NE7.9 kmh NE 10.1 mph16.3 kmh 29.59 in1002.0 mb 0.00 in0.0 mm 0.00 in0.0 mm 0.17 in4.3 mm
02:35 PM 51.1°F10.6°C 46.4°F8.0°C 82% 6.4 mph NNE10.3 kmh NNE 11.2 mph18.0 kmh 29.59 in1002.0 mb 0.00 in0.0 mm 0.00 in0.0 mm 0.17 in4.3 mm
02:40 PM 50.9°F10.5°C 46.4°F8.0°C 82% 8.1 mph NE13.0 kmh NE 12.8 mph20.6 kmh 29.59 in1002.0 mb 0.00 in0.0 mm 0.00 in0.0 mm 0.17 in4.3 mm
02:45 PM 51.1°F10.6°C 46.4°F8.0°C 82% 9.1 mph NNE14.6 kmh NNE 12.8 mph20.6 kmh 29.59 in1002.0 mb 0.00 in0.0 mm 0.00 in0.0 mm 0.17 in4.3 mm
02:50 PM 50.9°F10.5°C 46.4°F8.0°C 82% 7.4 mph N11.9 kmh N 12.8 mph20.6 kmh 29.59 in1002.0 mb 0.00 in0.0 mm 0.00 in0.0 mm 0.17 in4.3 mm
02:55 PM 50.7°F10.4°C 46.4°F8.0°C 82% 6.0 mph NNE9.7 kmh NNE 8.5 mph13.7 kmh 29.59 in1002.0 mb 0.00 in0.0 mm 0.00 in0.0 mm 0.17 in4.3 mm
03:00 PM 50.7°F10.4°C 46.4°F8.0°C 82% 7.0 mph NE11.3 kmh NE 10.7 mph17.2 kmh 29.59 in1002.0 mb 0.00 in0.0 mm 0.00 in0.0 mm 0.17 in4.3 mm
03:05 PM 50.7°F10.4°C 44.6°F7.0°C 81% 7.5 mph NNE12.1 kmh NNE 11.0 mph17.7 kmh 29.59 in1002.0 mb 0.00 in0.0 mm 0.00 in0.0 mm 0.17 in4.3 mm
03:10 PM 50.5°F10.3°C 44.6°F7.0°C 81% 8.7 mph NNE14.0 kmh NNE 11.0 mph17.7 kmh 29.59 in1002.0 mb 0.00 in0.0 mm 0.00 in0.0 mm 0.17 in4.3 mm
03:15 PM 50.5°F10.3°C 44.6°F7.0°C 81% 8.2 mph NNE13.2 kmh NNE 11.0 mph17.7 kmh 29.59 in1002.0 mb 0.00 in0.0 mm 0.00 in0.0 mm 0.17 in4.3 mm
03:20 PM 50.5°F10.3°C 44.6°F7.0°C 81% 7.2 mph NNE11.6 kmh NNE 10.3 mph16.6 kmh 29.59 in1002.0 mb 0.00 in0.0 mm 0.00 in0.0 mm 0.17 in4.3 mm
03:25 PM 50.4°F10.2°C 44.6°F7.0°C 81% 7.1 mph NE11.4 kmh NE 10.3 mph16.6 kmh 29.62 in1003.0 mb 0.00 in0.0 mm 0.00 in0.0 mm 0.17 in4.3 mm
03:30 PM 50.4°F10.2°C 44.6°F7.0°C 80% 6.1 mph N9.8 kmh N 9.6 mph15.4 kmh 29.62 in1003.0 mb 0.00 in0.0 mm 0.00 in0.0 mm 0.17 in4.3 mm
03:35 PM 50.4°F10.2°C 44.6°F7.0°C 80% 6.2 mph N10.0 kmh N 11.0 mph17.7 kmh 29.62 in1003.0 mb 0.00 in0.0 mm 0.00 in0.0 mm 0.17 in4.3 mm
03:40 PM 50.2°F10.1°C 44.6°F7.0°C 80% 6.1 mph NNE9.8 kmh NNE 11.0 mph17.7 kmh 29.62 in1003.0 mb 0.00 in0.0 mm 0.00 in0.0 mm 0.17 in4.3 mm
03:45 PM 50.0°F10.0°C 44.6°F7.0°C 80% 6.3 mph NNE10.1 kmh NNE 8.1 mph13.0 kmh 29.62 in1003.0 mb 0.00 in0.0 mm 0.00 in0.0 mm 0.17 in4.3 mm
03:50 PM 50.0°F10.0°C 44.6°F7.0°C 80% 6.5 mph NNE10.5 kmh NNE 8.1 mph13.0 kmh 29.62 in1003.0 mb 0.00 in0.0 mm 0.00 in0.0 mm 0.17 in4.3 mm
03:55 PM 49.8°F9.9°C 44.6°F7.0°C 80% 6.7 mph NNE10.8 kmh NNE 11.0 mph17.7 kmh 29.62 in1003.0 mb 0.00 in0.0 mm 0.00 in0.0 mm 0.17 in4.3 mm
04:00 PM 49.6°F9.8°C 44.6°F7.0°C 80% 6.1 mph NNE9.8 kmh NNE 11.0 mph17.7 kmh 29.62 in1003.0 mb 0.00 in0.0 mm 0.00 in0.0 mm 0.17 in4.3 mm
04:05 PM 49.6°F9.8°C 44.6°F7.0°C 80% 4.9 mph NNE7.9 kmh NNE 11.0 mph17.7 kmh 29.62 in1003.0 mb 0.00 in0.0 mm 0.00 in0.0 mm 0.17 in4.3 mm
04:10 PM 49.6°F9.8°C 44.6°F7.0°C 80% 5.5 mph NNE8.9 kmh NNE 8.5 mph13.7 kmh 29.62 in1003.0 mb 0.00 in0.0 mm 0.00 in0.0 mm 0.17 in4.3 mm
04:15 PM 49.5°F9.7°C 44.6°F7.0°C 80% 5.5 mph NNE8.9 kmh NNE 8.5 mph13.7 kmh 29.62 in1003.0 mb 0.00 in0.0 mm 0.00 in0.0 mm 0.17 in4.3 mm
04:20 PM 49.5°F9.7°C 42.8°F6.0°C 79% 4.6 mph N7.4 kmh N 7.8 mph12.6 kmh 29.62 in1003.0 mb 0.00 in0.0 mm 0.00 in0.0 mm 0.17 in4.3 mm
04:25 PM 49.5°F9.7°C 42.8°F6.0°C 79% 5.3 mph N8.5 kmh N 7.8 mph12.6 kmh 29.62 in1003.0 mb 0.00 in0.0 mm 0.00 in0.0 mm 0.17 in4.3 mm
04:30 PM 49.3°F9.6°C 42.8°F6.0°C 79% 5.3 mph N8.5 kmh N 7.6 mph12.2 kmh 29.62 in1003.0 mb 0.00 in0.0 mm 0.00 in0.0 mm 0.17 in4.3 mm
04:35 PM 49.3°F9.6°C 42.8°F6.0°C 79% 4.3 mph N6.9 kmh N 7.6 mph12.2 kmh 29.62 in1003.0 mb 0.00 in0.0 mm 0.00 in0.0 mm 0.17 in4.3 mm
04:40 PM 49.1°F9.5°C 42.8°F6.0°C 79% 3.1 mph NNW5.0 kmh NNW 4.9 mph7.9 kmh 29.62 in1003.0 mb 0.00 in0.0 mm 0.00 in0.0 mm 0.17 in4.3 mm
04:45 PM 49.1°F9.5°C 42.8°F6.0°C 79% 3.1 mph N5.0 kmh N 5.6 mph9.0 kmh 29.62 in1003.0 mb 0.00 in0.0 mm 0.00 in0.0 mm 0.17 in4.3 mm
04:50 PM 49.1°F9.5°C 42.8°F6.0°C 79% 3.9 mph N6.3 kmh N 7.4 mph11.9 kmh 29.62 in1003.0 mb 0.00 in0.0 mm 0.00 in0.0 mm 0.17 in4.3 mm
04:55 PM 48.9°F9.4°C 42.8°F6.0°C 79% 4.3 mph N6.9 kmh N 7.4 mph11.9 kmh 29.65 in1004.1 mb 0.00 in0.0 mm 0.00 in0.0 mm 0.17 in4.3 mm
05:00 PM 48.9°F9.4°C 42.8°F6.0°C 79% 4.3 mph NNE6.9 kmh NNE 6.3 mph10.1 kmh 29.65 in1004.1 mb 0.00 in0.0 mm 0.00 in0.0 mm 0.17 in4.3 mm
05:05 PM 48.7°F9.3°C 42.8°F6.0°C 79% 4.5 mph NNE7.2 kmh NNE 6.5 mph10.5 kmh 29.65 in1004.1 mb 0.00 in0.0 mm 0.00 in0.0 mm 0.17 in4.3 mm
05:10 PM 48.6°F9.2°C 42.8°F6.0°C 79% 4.2 mph N6.8 kmh N 6.9 mph11.1 kmh 29.65 in1004.1 mb 0.00 in0.0 mm 0.00 in0.0 mm 0.17 in4.3 mm
05:15 PM 48.4°F9.1°C 42.8°F6.0°C 78% 3.7 mph N6.0 kmh N 6.9 mph11.1 kmh 29.65 in1004.1 mb 0.00 in0.0 mm 0.00 in0.0 mm 0.17 in4.3 mm
05:20 PM 48.4°F9.1°C 42.8°F6.0°C 78% 3.7 mph N6.0 kmh N 8.5 mph13.7 kmh 29.65 in1004.1 mb 0.00 in0.0 mm 0.00 in0.0 mm 0.17 in4.3 mm
05:25 PM 48.2°F9.0°C 42.8°F6.0°C 78% 4.2 mph N6.8 kmh N 8.5 mph13.7 kmh 29.65 in1004.1 mb 0.00 in0.0 mm 0.00 in0.0 mm 0.17 in4.3 mm
05:30 PM 48.0°F8.9°C 42.8°F6.0°C 78% 4.2 mph N6.8 kmh N 6.5 mph10.5 kmh 29.65 in1004.1 mb 0.00 in0.0 mm 0.00 in0.0 mm 0.17 in4.3 mm
05:35 PM 47.7°F8.7°C 41.0°F5.0°C 78% 4.2 mph NNE6.8 kmh NNE 6.5 mph10.5 kmh 29.65 in1004.1 mb 0.00 in0.0 mm 0.00 in0.0 mm 0.17 in4.3 mm
05:40 PM 47.5°F8.6°C 41.0°F5.0°C 78% 4.3 mph N6.9 kmh N 7.6 mph12.2 kmh 29.65 in1004.1 mb 0.00 in0.0 mm 0.00 in0.0 mm 0.17 in4.3 mm
05:45 PM 47.3°F8.5°C 41.0°F5.0°C 77% 4.2 mph N6.8 kmh N 7.6 mph12.2 kmh 29.65 in1004.1 mb 0.00 in0.0 mm 0.00 in0.0 mm 0.17 in4.3 mm
05:50 PM 47.1°F8.4°C 41.0°F5.0°C 77% 4.7 mph N7.6 kmh N 7.4 mph11.9 kmh 29.65 in1004.1 mb 0.00 in0.0 mm 0.00 in0.0 mm 0.17 in4.3 mm
05:55 PM 46.8°F8.2°C 41.0°F5.0°C 77% 4.9 mph NNE7.9 kmh NNE 7.4 mph11.9 kmh 29.68 in1005.1 mb 0.00 in0.0 mm 0.00 in0.0 mm 0.17 in4.3 mm
06:00 PM 46.6°F8.1°C 41.0°F5.0°C 77% 4.0 mph NNE6.4 kmh NNE 6.5 mph10.5 kmh 29.68 in1005.1 mb 0.00 in0.0 mm 0.00 in0.0 mm 0.17 in4.3 mm
06:05 PM 46.4°F8.0°C 41.0°F5.0°C 77% 3.6 mph N5.8 kmh N 6.0 mph9.7 kmh 29.68 in1005.1 mb 0.00 in0.0 mm 0.00 in0.0 mm 0.17 in4.3 mm
06:10 PM 46.4°F8.0°C 41.0°F5.0°C 77% 3.3 mph NNW5.3 kmh NNW 4.9 mph7.9 kmh 29.68 in1005.1 mb 0.00 in0.0 mm 0.00 in0.0 mm 0.17 in4.3 mm
06:15 PM 46.2°F7.9°C 39.2°F4.0°C 77% 3.1 mph NNW5.0 kmh NNW 4.3 mph6.9 kmh 29.68 in1005.1 mb 0.00 in0.0 mm 0.00 in0.0 mm 0.17 in4.3 mm
06:20 PM 46.0°F7.8°C 39.2°F4.0°C 77% 3.0 mph N4.8 kmh N 3.8 mph6.1 kmh 29.68 in1005.1 mb 0.00 in0.0 mm 0.00 in0.0 mm 0.17 in4.3 mm
06:25 PM 46.0°F7.8°C 39.2°F4.0°C 77% 2.7 mph N4.3 kmh N 3.6 mph5.8 kmh 29.68 in1005.1 mb 0.00 in0.0 mm 0.00 in0.0 mm 0.17 in4.3 mm
06:30 PM 45.9°F7.7°C 39.2°F4.0°C 78% 2.8 mph NNE4.5 kmh NNE 4.5 mph7.2 kmh 29.68 in1005.1 mb 0.00 in0.0 mm 0.00 in0.0 mm 0.17 in4.3 mm
06:35 PM 45.5°F7.5°C 39.2°F4.0°C 78% 3.1 mph N5.0 kmh N 5.4 mph8.7 kmh 29.68 in1005.1 mb 0.00 in0.0 mm 0.00 in0.0 mm 0.17 in4.3 mm
06:40 PM 45.3°F7.4°C 39.2°F4.0°C 78% 3.1 mph N5.0 kmh N 5.4 mph8.7 kmh 29.68 in1005.1 mb 0.00 in0.0 mm 0.00 in0.0 mm 0.17 in4.3 mm
06:45 PM 44.8°F7.1°C 37.4°F3.0°C 78% 2.6 mph N4.2 kmh N 3.6 mph5.8 kmh 29.68 in1005.1 mb 0.00 in0.0 mm 0.00 in0.0 mm 0.17 in4.3 mm
06:50 PM 44.4°F6.9°C 37.4°F3.0°C 78% 1.9 mph N3.1 kmh N 3.1 mph5.0 kmh 29.68 in1005.1 mb 0.00 in0.0 mm 0.00 in0.0 mm 0.17 in4.3 mm
06:55 PM 44.4°F6.9°C 39.2°F4.0°C 79% 1.3 mph N2.1 kmh N 2.9 mph4.7 kmh 29.71 in1006.1 mb 0.00 in0.0 mm 0.00 in0.0 mm 0.17 in4.3 mm
07:00 PM 44.2°F6.8°C 37.4°F3.0°C 79% 0.6 mph NNW1.0 kmh NNW 2.0 mph3.2 kmh 29.71 in1006.1 mb 0.00 in0.0 mm 0.00 in0.0 mm 0.17 in4.3 mm
07:05 PM 44.4°F6.9°C 39.2°F4.0°C 79% 0.4 mph N0.6 kmh N 2.0 mph3.2 kmh 29.71 in1006.1 mb 0.00 in0.0 mm 0.00 in0.0 mm 0.17 in4.3 mm
07:10 PM 44.2°F6.8°C 37.4°F3.0°C 79% 0.8 mph N1.3 kmh N 3.4 mph5.5 kmh 29.71 in1006.1 mb 0.00 in0.0 mm 0.00 in0.0 mm 0.17 in4.3 mm
07:15 PM 43.9°F6.6°C 37.4°F3.0°C 79% 1.3 mph NW2.1 kmh NW 3.4 mph5.5 kmh 29.71 in1006.1 mb 0.00 in0.0 mm 0.00 in0.0 mm 0.17 in4.3 mm
07:20 PM 43.5°F6.4°C 37.4°F3.0°C 79% 0.9 mph NW1.4 kmh NW 2.2 mph3.5 kmh 29.71 in1006.1 mb 0.00 in0.0 mm 0.00 in0.0 mm 0.17 in4.3 mm
07:25 PM 43.3°F6.3°C 37.4°F3.0°C 79% 1.0 mph N1.6 kmh N 2.2 mph3.5 kmh 29.71 in1006.1 mb 0.00 in0.0 mm 0.00 in0.0 mm 0.17 in4.3 mm
07:30 PM 43.2°F6.2°C 37.4°F3.0°C 79% 1.8 mph NW2.9 kmh NW 3.8 mph6.1 kmh 29.71 in1006.1 mb 0.00 in0.0 mm 0.00 in0.0 mm 0.17 in4.3 mm
07:35 PM 43.2°F6.2°C 37.4°F3.0°C 80% 2.4 mph NW3.9 kmh NW 3.8 mph6.1 kmh 29.71 in1006.1 mb 0.00 in0.0 mm 0.00 in0.0 mm 0.17 in4.3 mm
07:40 PM 43.0°F6.1°C 37.4°F3.0°C 80% 2.1 mph N3.4 kmh N 2.7 mph4.3 kmh 29.71 in1006.1 mb 0.00 in0.0 mm 0.00 in0.0 mm 0.17 in4.3 mm
07:45 PM 42.8°F6.0°C 37.4°F3.0°C 80% 1.9 mph NNW3.1 kmh NNW 2.7 mph4.3 kmh 29.71 in1006.1 mb 0.00 in0.0 mm 0.00 in0.0 mm 0.17 in4.3 mm
07:50 PM 42.6°F5.9°C 37.4°F3.0°C 80% 1.6 mph NNW2.6 kmh NNW 2.7 mph4.3 kmh 29.71 in1006.1 mb 0.00 in0.0 mm 0.00 in0.0 mm 0.17 in4.3 mm
07:55 PM 42.4°F5.8°C 37.4°F3.0°C 80% 1.7 mph NNW2.7 kmh NNW 2.7 mph4.3 kmh 29.71 in1006.1 mb 0.00 in0.0 mm 0.00 in0.0 mm 0.17 in4.3 mm
08:00 PM 42.3°F5.7°C 37.4°F3.0°C 80% 1.9 mph NNW3.1 kmh NNW 3.8 mph6.1 kmh 29.71 in1006.1 mb 0.00 in0.0 mm 0.00 in0.0 mm 0.17 in4.3 mm
08:05 PM 42.3°F5.7°C 37.4°F3.0°C 80% 1.7 mph N2.7 kmh N 3.8 mph6.1 kmh 29.71 in1006.1 mb 0.00 in0.0 mm 0.00 in0.0 mm 0.17 in4.3 mm
08:10 PM 42.1°F5.6°C 37.4°F3.0°C 80% 1.6 mph NNW2.6 kmh NNW 2.5 mph4.0 kmh 29.74 in1007.1 mb 0.00 in0.0 mm 0.00 in0.0 mm 0.17 in4.3 mm
08:15 PM 42.1°F5.6°C 37.4°F3.0°C 80% 1.4 mph NW2.3 kmh NW 2.5 mph4.0 kmh 29.74 in1007.1 mb 0.00 in0.0 mm 0.00 in0.0 mm 0.17 in4.3 mm
08:20 PM 42.1°F5.6°C 37.4°F3.0°C 81% 1.1 mph NW1.8 kmh NW 2.5 mph4.0 kmh 29.74 in1007.1 mb 0.00 in0.0 mm 0.00 in0.0 mm 0.17 in4.3 mm
08:25 PM 42.1°F5.6°C 37.4°F3.0°C 81% 1.1 mph W1.8 kmh W 2.2 mph3.5 kmh 29.74 in1007.1 mb 0.00 in0.0 mm 0.00 in0.0 mm 0.17 in4.3 mm
08:30 PM 42.4°F5.8°C 37.4°F3.0°C 81% 1.3 mph WNW2.1 kmh WNW 2.2 mph3.5 kmh 29.74 in1007.1 mb 0.00 in0.0 mm 0.00 in0.0 mm 0.17 in4.3 mm
08:35 PM 43.0°F6.1°C 37.4°F3.0°C 81% 2.5 mph NW4.0 kmh NW 6.0 mph9.7 kmh 29.74 in1007.1 mb 0.00 in0.0 mm 0.00 in0.0 mm 0.17 in4.3 mm
08:40 PM 43.0°F6.1°C 37.4°F3.0°C 81% 2.9 mph NNW4.7 kmh NNW 6.0 mph9.7 kmh 29.74 in1007.1 mb 0.00 in0.0 mm 0.00 in0.0 mm 0.17 in4.3 mm
08:45 PM 42.8°F6.0°C 37.4°F3.0°C 81% 1.9 mph N3.1 kmh N 3.4 mph5.5 kmh 29.74 in1007.1 mb 0.00 in0.0 mm 0.00 in0.0 mm 0.17 in4.3 mm
08:50 PM 42.6°F5.9°C 37.4°F3.0°C 81% 1.0 mph N1.6 kmh N 2.7 mph4.3 kmh 29.74 in1007.1 mb 0.00 in0.0 mm 0.00 in0.0 mm 0.17 in4.3 mm
08:55 PM 42.6°F5.9°C 37.4°F3.0°C 81% 1.0 mph N1.6 kmh N 2.7 mph4.3 kmh 29.74 in1007.1 mb 0.00 in0.0 mm 0.00 in0.0 mm 0.17 in4.3 mm
09:00 PM 42.4°F5.8°C 37.4°F3.0°C 82% 1.5 mph N2.4 kmh N 2.7 mph4.3 kmh 29.74 in1007.1 mb 0.00 in0.0 mm 0.00 in0.0 mm 0.17 in4.3 mm
09:05 PM 42.3°F5.7°C 37.4°F3.0°C 82% 2.1 mph N3.4 kmh N 3.4 mph5.5 kmh 29.74 in1007.1 mb 0.00 in0.0 mm 0.00 in0.0 mm 0.17 in4.3 mm
09:10 PM 42.8°F6.0°C 37.4°F3.0°C 82% 3.0 mph N4.8 kmh N 5.6 mph9.0 kmh 29.74 in1007.1 mb 0.00 in0.0 mm 0.00 in0.0 mm 0.17 in4.3 mm
09:15 PM 43.0°F6.1°C 37.4°F3.0°C 82% 3.5 mph N5.6 kmh N 6.9 mph11.1 kmh 29.74 in1007.1 mb 0.00 in0.0 mm 0.00 in0.0 mm 0.17 in4.3 mm
09:20 PM 43.2°F6.2°C 39.2°F4.0°C 82% 4.3 mph N6.9 kmh N 6.9 mph11.1 kmh 29.74 in1007.1 mb 0.00 in0.0 mm 0.00 in0.0 mm 0.17 in4.3 mm
09:25 PM 43.3°F6.3°C 39.2°F4.0°C 82% 3.8 mph N6.1 kmh N 6.0 mph9.7 kmh 29.74 in1007.1 mb 0.00 in0.0 mm 0.00 in0.0 mm 0.17 in4.3 mm
09:30 PM 43.3°F6.3°C 37.4°F3.0°C 81% 3.2 mph N5.1 kmh N 4.3 mph6.9 kmh 29.74 in1007.1 mb 0.00 in0.0 mm 0.00 in0.0 mm 0.17 in4.3 mm
09:35 PM 43.3°F6.3°C 37.4°F3.0°C 81% 3.2 mph N5.1 kmh N 5.4 mph8.7 kmh 29.74 in1007.1 mb 0.00 in0.0 mm 0.00 in0.0 mm 0.17 in4.3 mm
09:40 PM 43.3°F6.3°C 37.4°F3.0°C 81% 2.8 mph NNW4.5 kmh NNW 5.4 mph8.7 kmh 29.77 in1008.1 mb 0.00 in0.0 mm 0.00 in0.0 mm 0.17 in4.3 mm
09:45 PM 43.7°F6.5°C 39.2°F4.0°C 81% 2.8 mph N4.5 kmh N 6.0 mph9.7 kmh 29.77 in1008.1 mb 0.00 in0.0 mm 0.00 in0.0 mm 0.17 in4.3 mm
09:50 PM 44.2°F6.8°C 39.2°F4.0°C 81% 4.9 mph N7.9 kmh N 10.1 mph16.3 kmh 29.77 in1008.1 mb 0.00 in0.0 mm 0.00 in0.0 mm 0.17 in4.3 mm
09:55 PM 44.2°F6.8°C 39.2°F4.0°C 81% 6.3 mph NNE10.1 kmh NNE 10.1 mph16.3 kmh 29.74 in1007.1 mb 0.00 in0.0 mm 0.00 in0.0 mm 0.17 in4.3 mm
10:00 PM 44.1°F6.7°C 39.2°F4.0°C 81% 5.8 mph NNE9.3 kmh NNE 8.5 mph13.7 kmh 29.74 in1007.1 mb 0.00 in0.0 mm 0.00 in0.0 mm 0.17 in4.3 mm
10:05 PM 43.7°F6.5°C 39.2°F4.0°C 82% 5.4 mph N8.7 kmh N 7.8 mph12.6 kmh 29.74 in1007.1 mb 0.00 in0.0 mm 0.00 in0.0 mm 0.17 in4.3 mm
10:10 PM 43.7°F6.5°C 39.2°F4.0°C 82% 4.9 mph NNE7.9 kmh NNE 7.2 mph11.6 kmh 29.77 in1008.1 mb 0.00 in0.0 mm 0.00 in0.0 mm 0.17 in4.3 mm
10:15 PM 43.5°F6.4°C 39.2°F4.0°C 82% 4.0 mph N6.4 kmh N 5.8 mph9.3 kmh 29.77 in1008.1 mb 0.00 in0.0 mm 0.00 in0.0 mm 0.17 in4.3 mm
10:20 PM 43.3°F6.3°C 39.2°F4.0°C 82% 3.3 mph N5.3 kmh N 4.7 mph7.6 kmh 29.77 in1008.1 mb 0.00 in0.0 mm 0.00 in0.0 mm 0.17 in4.3 mm
10:25 PM 43.3°F6.3°C 39.2°F4.0°C 82% 2.7 mph NNW4.3 kmh NNW 4.7 mph7.6 kmh 29.77 in1008.1 mb 0.00 in0.0 mm 0.00 in0.0 mm 0.17 in4.3 mm
10:30 PM 43.0°F6.1°C 37.4°F3.0°C 82% 2.2 mph NNW3.5 kmh NNW 4.7 mph7.6 kmh 29.77 in1008.1 mb 0.00 in0.0 mm 0.00 in0.0 mm 0.17 in4.3 mm
10:35 PM 42.8°F6.0°C 37.4°F3.0°C 82% 2.1 mph NNW3.4 kmh NNW 4.0 mph6.4 kmh 29.77 in1008.1 mb 0.00 in0.0 mm 0.00 in0.0 mm 0.17 in4.3 mm
10:40 PM 42.8°F6.0°C 37.4°F3.0°C 82% 1.9 mph NNW3.1 kmh NNW 4.0 mph6.4 kmh 29.77 in1008.1 mb 0.00 in0.0 mm 0.00 in0.0 mm 0.17 in4.3 mm
10:45 PM 42.4°F5.8°C 37.4°F3.0°C 82% 0.9 mph N1.4 kmh N 3.6 mph5.8 kmh 29.77 in1008.1 mb 0.00 in0.0 mm 0.00 in0.0 mm 0.17 in4.3 mm
10:50 PM 42.3°F5.7°C 37.4°F3.0°C 82% 0.6 mph NW1.0 kmh NW 2.5 mph4.0 kmh 29.77 in1008.1 mb 0.00 in0.0 mm 0.00 in0.0 mm 0.17 in4.3 mm
10:55 PM 42.8°F6.0°C 37.4°F3.0°C 82% 1.8 mph NNW2.9 kmh NNW 4.7 mph7.6 kmh 29.77 in1008.1 mb 0.00 in0.0 mm 0.00 in0.0 mm 0.17 in4.3 mm
11:00 PM 43.2°F6.2°C 39.2°F4.0°C 83% 3.9 mph N6.3 kmh N 8.5 mph13.7 kmh 29.77 in1008.1 mb 0.00 in0.0 mm 0.00 in0.0 mm 0.17 in4.3 mm
11:05 PM 43.2°F6.2°C 39.2°F4.0°C 83% 3.8 mph N6.1 kmh N 8.5 mph13.7 kmh 29.77 in1008.1 mb 0.00 in0.0 mm 0.00 in0.0 mm 0.17 in4.3 mm
11:10 PM 42.8°F6.0°C 37.4°F3.0°C 83% 2.7 mph NW4.3 kmh NW 3.8 mph6.1 kmh 29.80 in1009.1 mb 0.00 in0.0 mm 0.00 in0.0 mm 0.17 in4.3 mm
11:15 PM 43.2°F6.2°C 39.2°F4.0°C 83% 2.6 mph NW4.2 kmh NW 3.8 mph6.1 kmh 29.80 in1009.1 mb 0.00 in0.0 mm 0.00 in0.0 mm 0.17 in4.3 mm
11:20 PM 43.5°F6.4°C 39.2°F4.0°C 83% 3.1 mph WNW5.0 kmh WNW 7.4 mph11.9 kmh 29.80 in1009.1 mb 0.00 in0.0 mm 0.00 in0.0 mm 0.17 in4.3 mm
11:25 PM 43.5°F6.4°C 39.2°F4.0°C 83% 3.5 mph NW5.6 kmh NW 7.4 mph11.9 kmh 29.80 in1009.1 mb 0.00 in0.0 mm 0.00 in0.0 mm 0.17 in4.3 mm
11:30 PM 43.5°F6.4°C 39.2°F4.0°C 83% 3.5 mph NW5.6 kmh NW 7.8 mph12.6 kmh 29.80 in1009.1 mb 0.00 in0.0 mm 0.00 in0.0 mm 0.17 in4.3 mm
11:35 PM 43.5°F6.4°C 39.2°F4.0°C 83% 4.1 mph NW6.6 kmh NW 7.8 mph12.6 kmh 29.80 in1009.1 mb 0.00 in0.0 mm 0.00 in0.0 mm 0.17 in4.3 mm
11:40 PM 43.7°F6.5°C 39.2°F4.0°C 83% 4.8 mph NNW7.7 kmh NNW 8.1 mph13.0 kmh 29.80 in1009.1 mb 0.00 in0.0 mm 0.00 in0.0 mm 0.17 in4.3 mm
11:45 PM 44.1°F6.7°C 39.2°F4.0°C 83% 5.9 mph NNW9.5 kmh NNW 13.2 mph21.2 kmh 29.80 in1009.1 mb 0.00 in0.0 mm 0.00 in0.0 mm 0.17 in4.3 mm
11:50 PM 44.1°F6.7°C 39.2°F4.0°C 82% 6.2 mph NNW10.0 kmh NNW 13.2 mph21.2 kmh 29.80 in1009.1 mb 0.00 in0.0 mm 0.00 in0.0 mm 0.17 in4.3 mm
11:55 PM 44.1°F6.7°C 39.2°F4.0°C 82% 5.7 mph NNW9.2 kmh NNW 8.5 mph13.7 kmh 29.80 in1009.1 mb 0.00 in0.0 mm 0.00 in0.0 mm 0.17 in4.3 mm